Time;durP1;ratioP1;P1;durP2;ratioP2;P2;SDS_P1;SDS_P2;PMS_P1;PMS_P2;Temp;Humidity;BMP_temperature;BMP_pressure;BME280_temperature;BME280_humidity;BME280_pressure;Samples;Min_cycle;Max_cycle;Signal;HPM_P1;HPM_P2
2021/07/17 00:02:22;;;;;;;12.15;7.87;;;;;;;20.54;75.63;100623.63;1781179;79;20935;-70
2021/07/17 00:04:48;;;;;;;9.65;8.60;;;;;;;20.54;75.68;100629.05;1784765;79;21041;-70
2021/07/17 00:07:14;;;;;;;11.57;8.70;;;;;;;20.55;75.73;100638.84;1792030;79;21490;-70
2021/07/17 00:09:40;;;;;;;12.47;9.60;;;;;;;20.56;75.77;100633.69;1786189;79;21018;-70
2021/07/17 00:12:06;;;;;;;13.93;8.60;;;;;;;20.55;75.82;100628.00;1782548;79;21183;-70
2021/07/17 00:14:32;;;;;;;12.05;8.98;;;;;;;20.55;75.84;100629.36;1786704;79;21055;-71
2021/07/17 00:16:58;;;;;;;10.28;8.88;;;;;;;20.52;75.90;100623.01;1778672;79;20983;-70
2021/07/17 00:19:24;;;;;;;14.03;9.35;;;;;;;20.51;75.96;100618.67;1784776;79;21096;-70
2021/07/17 00:21:50;;;;;;;14.18;10.03;;;;;;;20.51;76.00;100615.95;1785006;79;21061;-70
2021/07/17 00:24:17;;;;;;;13.30;9.23;;;;;;;20.49;76.07;100612.63;1780944;79;21276;-70
2021/07/17 00:26:43;;;;;;;15.72;10.00;;;;;;;20.49;76.12;100614.82;1780036;79;21055;-71
2021/07/17 00:29:09;;;;;;;12.43;9.38;;;;;;;20.51;76.16;100614.08;1783749;79;21009;-70
2021/07/17 00:31:35;;;;;;;12.37;9.58;;;;;;;20.52;76.22;100609.46;1788044;79;21455;-70
2021/07/17 00:34:01;;;;;;;13.20;10.05;;;;;;;20.55;76.26;100614.45;1784624;79;20983;-70
2021/07/17 00:36:28;;;;;;;14.78;11.12;;;;;;;20.57;76.29;100617.22;1823160;78;21193;-70
2021/07/17 00:38:54;;;;;;;12.25;9.33;;;;;;;20.57;76.32;100620.45;1782841;80;21412;-70
2021/07/17 00:41:20;;;;;;;11.57;9.23;;;;;;;20.56;76.35;100617.44;1782421;79;20955;-70
2021/07/17 00:43:47;;;;;;;14.53;10.00;;;;;;;20.56;76.38;100614.73;1781045;80;21576;-70
2021/07/17 00:46:13;;;;;;;14.05;10.48;;;;;;;20.55;76.43;100617.16;1785511;79;21030;-70
2021/07/17 00:48:39;;;;;;;12.05;10.43;;;;;;;20.53;76.45;100608.41;1793310;79;21297;-70
2021/07/17 00:51:06;;;;;;;15.05;11.60;;;;;;;20.53;76.47;100609.25;1780742;79;21003;-70
2021/07/17 00:53:32;;;;;;;16.30;11.08;;;;;;;20.51;76.50;100618.67;1781040;79;21477;-70
2021/07/17 00:55:58;;;;;;;13.55;10.63;;;;;;;20.49;76.56;100607.22;1786733;79;21019;-70
2021/07/17 00:58:27;;;;;;;14.73;11.25;;;;;;;20.49;76.60;100607.22;1788427;79;21625;-70
2021/07/17 01:00:53;;;;;;;;;;;;;;;20.47;76.64;100614.77;1791185;79;21916;-70
2021/07/17 01:03:19;;;;;;;15.48;11.00;;;;;;;20.44;76.67;100612.79;1730609;79;20235;-70
2021/07/17 01:05:47;;;;;;;17.82;11.22;;;;;;;20.43;76.68;100608.97;1760572;80;21745;-70
2021/07/17 01:08:13;;;;;;;14.03;11.18;;;;;;;20.39;76.71;100605.06;1783386;79;21597;-70
2021/07/17 01:10:39;;;;;;;13.88;11.40;;;;;;;20.37;76.78;100602.56;1785476;79;21008;-70
2021/07/17 01:13:06;;;;;;;14.03;11.70;;;;;;;20.33;76.85;100595.98;1781051;79;21184;-70
2021/07/17 01:15:32;;;;;;;12.95;11.15;;;;;;;20.31;76.90;100604.84;1783850;79;20984;-70
2021/07/17 01:17:58;;;;;;;12.78;10.95;;;;;;;20.31;76.94;100602.14;1786175;79;20970;-70
2021/07/17 01:20:24;;;;;;;21.02;12.60;;;;;;;20.32;76.99;100601.61;1784979;79;21122;-70
2021/07/17 01:22:50;;;;;;;16.48;11.30;;;;;;;20.30;77.02;100596.97;1780864;79;20973;-70
2021/07/17 01:25:25;;;;;;;17.27;12.28;;;;;;;20.28;77.07;100598.53;1785907;79;21535;-70
2021/07/17 01:27:52;;;;;;;17.90;12.68;;;;;;;20.28;77.12;100605.83;1783027;79;20981;-71
2021/07/17 01:30:21;;;;;;;19.27;12.65;;;;;;;20.28;77.17;100609.89;1785205;79;21857;-70
2021/07/17 01:32:47;;;;;;;15.15;12.00;;;;;;;20.27;77.21;100602.29;1789728;79;21034;-70
2021/07/17 01:35:13;;;;;;;15.60;12.23;;;;;;;20.26;77.26;100601.98;1789178;79;21006;-70
2021/07/17 01:37:39;;;;;;;13.85;11.53;;;;;;;20.25;77.29;100600.31;1784428;79;21215;-70
2021/07/17 01:40:07;;;;;;;17.45;11.97;;;;;;;20.22;77.34;100591.82;1784188;79;20982;-70
2021/07/17 01:42:36;;;;;;;16.45;13.13;;;;;;;20.17;77.39;100591.14;1788460;79;21545;-70
2021/07/17 01:45:05;;;;;;;20.48;13.45;;;;;;;20.15;77.45;100594.62;1769671;80;21016;-70
2021/07/17 01:47:34;;;;;;;19.00;13.58;;;;;;;20.14;77.52;100586.70;1772855;80;20970;-70
2021/07/17 01:50:00;;;;;;;23.42;14.15;;;;;;;20.11;77.56;100583.94;1782740;80;21309;-70
2021/07/17 01:52:26;;;;;;;20.80;15.28;;;;;;;20.09;77.61;100588.73;1804935;79;21464;-70
2021/07/17 01:54:52;;;;;;;19.23;14.18;;;;;;;20.10;77.72;100589.56;1766090;80;20999;-70
2021/07/17 01:57:18;;;;;;;21.05;13.45;;;;;;;20.10;77.74;100590.40;1772421;80;21054;-70
2021/07/17 01:59:45;;;;;;;19.40;14.23;;;;;;;20.11;77.80;100596.13;1777050;80;21015;-70
2021/07/17 02:02:12;;;;;;;14.50;13.00;;;;;;;20.11;77.88;100594.77;1774344;80;21224;-70
2021/07/17 02:04:38;;;;;;;18.12;13.88;;;;;;;20.12;77.90;100601.02;1776159;80;20982;-70
2021/07/17 02:07:05;;;;;;;15.32;12.82;;;;;;;20.10;77.97;100603.94;1810285;79;20979;-70
2021/07/17 02:09:32;;;;;;;17.23;13.80;;;;;;;20.11;78.05;100606.13;1805926;79;20993;-70
2021/07/17 02:11:58;;;;;;;17.73;14.18;;;;;;;20.10;78.09;100603.94;1806520;79;21481;-70
2021/07/17 02:14:24;;;;;;;19.77;14.03;;;;;;;20.11;78.13;100606.95;1800087;79;21859;-70
2021/07/17 02:16:50;;;;;;;16.67;13.93;;;;;;;20.13;78.17;100594.52;1801619;79;21016;-70
2021/07/17 02:19:22;;;;;;;17.12;13.80;;;;;;;20.14;78.23;100597.02;1805727;79;20999;-70
2021/07/17 02:21:53;;;;;;;20.85;14.38;;;;;;;20.14;78.29;100597.54;1769314;80;21507;-70
2021/07/17 02:24:19;;;;;;;23.05;15.60;;;;;;;20.13;78.32;100597.23;1779626;80;21679;-70
2021/07/17 02:26:46;;;;;;;20.77;14.93;;;;;;;20.12;78.38;100592.38;1776935;80;21240;-70
2021/07/17 02:29:12;;;;;;;20.57;15.70;;;;;;;20.11;78.45;100600.19;1775893;80;21121;-70
2021/07/17 02:31:38;;;;;;;26.70;16.12;;;;;;;20.12;78.47;100603.20;1809272;79;21027;-70
2021/07/17 02:34:05;;;;;;;20.65;15.03;;;;;;;20.13;78.54;100602.13;1771299;80;21495;-70
2021/07/17 02:36:31;;;;;;;17.40;14.50;;;;;;;20.11;78.58;100589.35;1773355;80;20971;-70
2021/07/17 02:38:57;;;;;;;19.52;14.70;;;;;;;20.09;78.62;100598.21;1774300;80;21901;-70
2021/07/17 02:41:24;;;;;;;18.85;14.23;;;;;;;20.07;78.68;100588.15;1779096;80;21002;-70
2021/07/17 02:43:50;;;;;;;17.62;15.35;;;;;;;20.07;78.75;100596.27;1793233;79;21449;-70
2021/07/17 02:46:16;;;;;;;19.27;13.43;;;;;;;20.07;78.79;100598.15;1784726;79;21019;-70
2021/07/17 02:48:42;;;;;;;17.02;13.65;;;;;;;20.08;78.85;100593.04;1785787;79;21071;-70
2021/07/17 02:51:08;;;;;;;17.90;14.83;;;;;;;20.09;78.91;100590.09;1787118;79;21227;-70
2021/07/17 02:53:34;;;;;;;20.15;13.80;;;;;;;20.07;78.94;100590.86;1783360;79;21024;-70
2021/07/17 02:56:00;;;;;;;19.73;14.38;;;;;;;20.11;79.01;100593.41;1803831;78;21015;-70
2021/07/17 02:58:27;;;;;;;17.92;14.15;;;;;;;20.11;79.05;100592.06;1813725;78;20967;-70
2021/07/17 03:00:56;;;;;;;21.27;14.35;;;;;;;20.12;79.08;100593.72;1780140;80;21038;-70
2021/07/17 03:03:22;;;;;;;18.50;14.70;;;;;;;20.12;79.15;100593.72;1780359;80;22035;-70
2021/07/17 03:05:48;;;;;;;27.93;19.62;;;;;;;20.14;79.19;100596.19;1783985;79;20969;-70
2021/07/17 03:08:19;;;;;;;33.60;21.15;;;;;;;20.14;79.24;100596.19;1790228;79;21093;-70
2021/07/17 03:10:42;;;;;;;27.82;19.20;;;;;;;20.14;79.28;100597.02;1781323;79;21452;-70
2021/07/17 03:13:09;;;;;;;25.05;17.67;;;;;;;20.14;79.35;100601.08;1782349;79;21008;-70
2021/07/17 03:15:36;;;;;;;23.70;16.45;;;;;;;20.16;79.36;100599.52;1815177;78;21323;-70
2021/07/17 03:18:02;;;;;;;21.33;16.32;;;;;;;20.16;79.41;100596.80;1798769;78;21421;-70
2021/07/17 03:20:28;;;;;;;19.57;15.50;;;;;;;20.14;79.46;100595.66;1778833;80;21610;-70
2021/07/17 03:22:54;;;;;;;17.98;15.48;;;;;;;20.15;79.50;100595.97;1787119;79;20996;-70
2021/07/17 03:25:20;;;;;;;25.32;15.53;;;;;;;20.16;79.53;100596.25;1781568;79;21064;-70
2021/07/17 03:27:46;;;;;;;18.80;13.60;;;;;;;20.18;79.57;100598.22;1781767;79;21402;-70
2021/07/17 03:30:14;;;;;;;20.32;15.03;;;;;;;20.19;79.58;100594.99;1788109;79;21015;-70
2021/07/17 03:32:40;;;;;;;21.33;15.18;;;;;;;20.21;79.65;100595.58;1779786;79;21012;-70
2021/07/17 03:35:06;;;;;;;17.05;15.23;;;;;;;20.22;79.69;100598.07;1805279;78;21012;-70
2021/07/17 03:37:32;;;;;;;18.57;14.87;;;;;;;20.21;79.72;100592.34;1810588;78;20907;-70
2021/07/17 03:39:58;;;;;;;20.82;15.40;;;;;;;20.20;79.75;100595.27;1775412;80;22225;-70
2021/07/17 03:42:24;;;;;;;19.95;14.23;;;;;;;20.17;79.78;100597.91;1785584;78;21016;-70
2021/07/17 03:44:50;;;;;;;17.17;14.85;;;;;;;20.19;79.84;100598.53;1781009;79;21060;-70
2021/07/17 03:47:16;;;;;;;18.73;15.20;;;;;;;20.18;79.87;100592.80;1783428;79;21043;-70
2021/07/17 03:49:42;;;;;;;19.92;15.98;;;;;;;20.18;79.93;100586.03;1784192;79;21037;-70
2021/07/17 03:52:08;;;;;;;21.30;16.42;;;;;;;20.19;79.96;100594.47;1782933;79;21428;-70
2021/07/17 03:54:34;;;;;;;18.98;15.13;;;;;;;20.20;79.99;100588.50;1780479;79;21480;-70
2021/07/17 03:57:01;;;;;;;23.20;15.90;;;;;;;20.19;80.05;100580.92;1781419;79;21019;-70
2021/07/17 03:59:27;;;;;;;19.02;15.50;;;;;;;20.21;80.10;100580.16;1784355;79;20987;-70
2021/07/17 04:01:53;;;;;;;21.50;16.65;;;;;;;20.23;80.12;100576.68;1783154;79;20995;-70
2021/07/17 04:04:19;;;;;;;22.60;16.02;;;;;;;20.27;80.15;100579.27;1783628;79;21492;-70
2021/07/17 04:06:45;;;;;;;19.52;16.25;;;;;;;20.31;80.21;100581.82;1786948;79;20982;-70
2021/07/17 04:09:11;;;;;;;18.82;16.07;;;;;;;20.33;80.23;100582.44;1787035;79;21586;-70
2021/07/17 04:11:37;;;;;;;19.77;17.62;;;;;;;20.38;80.25;100582.56;1784151;79;20935;-70
2021/07/17 04:14:03;;;;;;;20.92;16.17;;;;;;;20.43;80.27;100582.71;1786186;79;21058;-70
2021/07/17 04:16:29;;;;;;;20.50;17.17;;;;;;;20.50;80.31;100579.07;1780500;79;21579;-70
2021/07/17 04:18:55;;;;;;;22.60;16.52;;;;;;;20.57;80.33;100579.80;1782001;79;21001;-70
2021/07/17 04:21:21;;;;;;;24.30;17.85;;;;;;;20.62;80.36;100575.89;1785371;79;20991;-70
2021/07/17 04:23:47;;;;;;;23.57;18.75;;;;;;;20.65;80.36;100573.54;1784151;79;20995;-70
2021/07/17 04:26:14;;;;;;;23.55;18.87;;;;;;;20.69;80.40;100573.91;1786465;79;21034;-70
2021/07/17 04:28:40;;;;;;;24.07;18.17;;;;;;;20.68;80.36;100570.89;1786847;79;22342;-70
2021/07/17 04:31:06;;;;;;;24.92;20.60;;;;;;;20.66;80.39;100565.69;1787053;79;21036;-70
2021/07/17 04:33:32;;;;;;;24.45;20.62;;;;;;;20.67;80.44;100566.52;1785035;79;20973;-70
2021/07/17 04:35:58;;;;;;;26.07;20.02;;;;;;;20.67;80.44;100570.05;1823135;78;20967;-70
2021/07/17 04:38:24;;;;;;;24.95;21.35;;;;;;;20.70;80.46;100572.30;1776531;80;21011;-70
2021/07/17 04:40:50;;;;;;;24.98;20.65;;;;;;;20.71;80.46;100571.25;1789638;79;22310;-70
2021/07/17 04:43:16;;;;;;;27.95;21.35;;;;;;;20.72;80.48;100577.50;1775958;79;21115;-70
2021/07/17 04:45:42;;;;;;;26.62;21.90;;;;;;;20.72;80.47;100572.87;1773025;79;20993;-70
2021/07/17 04:48:08;;;;;;;28.50;22.27;;;;;;;20.71;80.49;100569.89;1791941;79;21051;-70
2021/07/17 04:50:37;;;;;;;23.32;20.77;;;;;;;20.72;80.50;100577.50;1776529;80;20999;-70
2021/07/17 04:53:03;;;;;;;27.70;20.65;;;;;;;20.74;80.50;100578.08;1771319;80;21725;-70
2021/07/17 04:55:29;;;;;;;23.20;20.72;;;;;;;20.71;80.50;100583.45;1770456;79;20981;-70
2021/07/17 04:57:55;;;;;;;22.73;20.35;;;;;;;20.74;80.51;100584.86;1793154;79;21075;-70
2021/07/17 05:00:21;;;;;;;24.60;20.20;;;;;;;20.73;80.54;100584.55;1797973;79;20967;-70
2021/07/17 05:02:49;;;;;;;25.00;20.57;;;;;;;20.75;80.53;100587.35;1797485;79;20983;-70
2021/07/17 05:05:17;;;;;;;27.40;22.32;;;;;;;20.76;80.54;100586.80;1812355;79;21656;-70
2021/07/17 05:07:45;;;;;;;23.07;20.37;;;;;;;20.76;80.54;100586.80;1806442;79;21043;-70
2021/07/17 05:10:13;;;;;;;21.85;19.42;;;;;;;20.77;80.54;100584.39;1803482;79;21024;-70
2021/07/17 05:12:39;;;;;;;28.12;20.55;;;;;;;20.74;80.54;100583.50;1802683;79;20972;-70
2021/07/17 05:15:08;;;;;;;25.95;20.32;;;;;;;20.73;80.58;100579.96;1801438;79;20980;-70
2021/07/17 05:17:34;;;;;;;24.52;20.95;;;;;;;20.76;80.59;100580.02;1810726;79;22330;-70
2021/07/17 05:20:01;;;;;;;23.40;20.85;;;;;;;20.77;80.62;100572.19;1789335;79;21488;-70
2021/07/17 05:22:27;;;;;;;29.77;22.52;;;;;;;20.79;80.64;100573.60;1790269;79;21003;-70
2021/07/17 05:24:53;;;;;;;23.38;20.52;;;;;;;20.82;80.66;100573.69;1779622;80;20990;-70
2021/07/17 05:27:19;;;;;;;20.60;18.50;;;;;;;20.88;80.68;100571.40;1773036;80;21018;-70
2021/07/17 05:29:47;;;;;;;24.80;19.23;;;;;;;20.91;80.70;100571.76;1773146;80;21722;-71
2021/07/17 05:32:14;;;;;;;22.17;19.52;;;;;;;20.94;80.71;100574.52;1796875;79;21450;-71
2021/07/17 05:34:41;;;;;;;23.57;19.92;;;;;;;20.94;80.70;100578.59;1798814;78;21008;-70
2021/07/17 05:37:07;;;;;;;28.65;21.10;;;;;;;20.92;80.74;100575.30;1771142;80;21010;-70
2021/07/17 05:39:35;;;;;;;25.10;19.57;;;;;;;20.88;80.75;100571.40;1781866;80;21499;-70
2021/07/17 05:42:02;;;;;;;22.55;20.05;;;;;;;20.83;80.78;100568.55;1804965;79;21601;-70
2021/07/17 05:44:28;;;;;;;25.25;21.45;;;;;;;20.81;80.79;100584.23;1769490;80;21372;-70
2021/07/17 05:46:54;;;;;;;26.48;21.27;;;;;;;20.77;80.83;100582.52;1796192;78;21006;-70
2021/07/17 05:49:20;;;;;;;30.10;21.45;;;;;;;20.75;80.88;100578.39;1824603;78;20963;-70
2021/07/17 05:51:46;;;;;;;27.87;21.80;;;;;;;20.72;80.92;100577.50;1785052;79;21395;-70
2021/07/17 05:54:13;;;;;;;27.02;22.17;;;;;;;20.73;80.97;100583.20;1790728;79;21529;-70
2021/07/17 05:56:39;;;;;;;31.57;23.20;;;;;;;20.73;80.98;100584.03;1793869;79;20996;-70
2021/07/17 05:59:05;;;;;;;36.80;24.63;;;;;;;20.74;81.03;100587.57;1797419;79;21025;-70
2021/07/17 06:01:31;;;;;;;26.60;23.83;;;;;;;20.73;81.08;100585.38;1786368;79;21494;-70
2021/07/17 06:03:57;;;;;;;33.55;25.08;;;;;;;20.71;81.13;100585.33;1795570;79;20986;-71
2021/07/17 06:06:23;;;;;;;34.67;24.63;;;;;;;20.71;81.17;100588.87;1787112;79;21695;-70
2021/07/17 06:08:49;;;;;;;29.23;26.10;;;;;;;20.73;81.22;100589.98;1795553;79;21078;-71
2021/07/17 06:11:16;;;;;;;35.83;27.60;;;;;;;20.75;81.28;100591.42;1781686;80;21016;-70
2021/07/17 06:13:42;;;;;;;30.08;25.65;;;;;;;20.80;81.30;100600.19;1797118;79;21021;-71
2021/07/17 06:16:08;;;;;;;37.20;28.32;;;;;;;20.85;81.34;100597.09;1789767;79;21059;-70
2021/07/17 06:18:34;;;;;;;36.45;27.30;;;;;;;20.88;81.36;100598.52;1797870;79;22187;-70
2021/07/17 06:21:00;;;;;;;34.15;25.75;;;;;;;20.89;81.39;100602.88;1783140;79;20999;-70
2021/07/17 06:23:26;;;;;;;32.45;26.90;;;;;;;20.90;81.42;100604.52;1800536;79;21028;-70
2021/07/17 06:25:52;;;;;;;37.05;28.27;;;;;;;20.88;81.42;100604.77;1790977;79;20992;-70
2021/07/17 06:28:18;;;;;;;39.65;27.98;;;;;;;20.90;81.45;100601.80;1792658;79;20989;-70
2021/07/17 06:30:44;;;;;;;32.60;26.40;;;;;;;20.88;81.46;100595.80;1794020;79;22343;-70
2021/07/17 06:33:10;;;;;;;31.65;27.30;;;;;;;20.90;81.53;100602.63;1788724;79;20959;-70
2021/07/17 06:35:36;;;;;;;31.65;26.07;;;;;;;20.92;81.54;100601.89;1793390;79;21020;-71
2021/07/17 06:38:03;;;;;;;31.52;25.97;;;;;;;20.97;81.56;100606.59;1790907;79;21000;-70
2021/07/17 06:40:29;;;;;;;29.77;24.77;;;;;;;21.01;81.58;100605.08;1792199;79;21564;-70
2021/07/17 06:42:55;;;;;;;28.60;25.43;;;;;;;21.04;81.62;100611.38;1788581;79;22382;-70
2021/07/17 06:45:21;;;;;;;29.92;25.82;;;;;;;21.04;81.61;100608.67;1777429;79;21011;-71
2021/07/17 06:47:47;;;;;;;27.93;24.90;;;;;;;21.10;81.67;100602.86;1768095;80;21031;-71
2021/07/17 06:50:15;;;;;;;27.93;23.77;;;;;;;21.16;81.70;100597.35;1763770;80;21021;-70
2021/07/17 06:52:41;;;;;;;30.32;27.13;;;;;;;21.28;81.70;100609.05;1809315;79;21473;-71
2021/07/17 06:55:08;;;;;;;30.92;25.57;;;;;;;21.41;81.72;100599.33;1806626;79;22278;-71
2021/07/17 06:57:36;;;;;;;34.30;27.13;;;;;;;21.57;81.68;100603.20;1801495;79;21025;-71
2021/07/17 07:00:09;;;;;;;30.02;25.70;;;;;;;21.76;81.64;100606.61;1801665;79;20916;-71
2021/07/17 07:02:35;;;;;;;27.22;24.27;;;;;;;21.82;81.48;100609.73;1802394;78;21024;-71
2021/07/17 07:05:01;;;;;;;28.07;24.23;;;;;;;21.90;81.48;100605.33;1805892;79;20989;-71
2021/07/17 07:07:27;;;;;;;31.90;24.92;;;;;;;21.98;81.45;100604.97;1807660;79;22514;-71
2021/07/17 07:09:53;;;;;;;30.43;24.07;;;;;;;22.10;81.36;100608.47;1805303;79;21006;-71
2021/07/17 07:12:19;;;;;;;31.20;23.65;;;;;;;22.23;81.23;100613.65;1793350;77;21400;-70
2021/07/17 07:14:45;;;;;;;23.02;19.98;;;;;;;22.24;81.08;100613.92;1803558;79;21032;-71
2021/07/17 07:17:11;;;;;;;25.77;20.35;;;;;;;22.31;81.00;100609.17;1812236;78;21003;-69
2021/07/17 07:19:37;;;;;;;26.25;20.15;;;;;;;22.36;80.86;100617.44;1777635;80;22381;-69
2021/07/17 07:22:03;;;;;;;22.30;19.98;;;;;;;22.46;80.71;100617.33;1805854;79;21452;-69
2021/07/17 07:24:30;;;;;;;24.45;19.62;;;;;;;22.50;80.53;100625.30;1768451;79;20979;-69
2021/07/17 07:26:57;;;;;;;23.77;20.70;;;;;;;22.60;80.41;100624.13;1777567;80;20983;-69
2021/07/17 07:29:26;;;;;;;25.82;20.92;;;;;;;22.68;80.24;100621.06;1763802;80;21379;-69
2021/07/17 07:31:52;;;;;;;24.05;21.00;;;;;;;22.70;80.07;100618.91;1776293;80;22506;-69
2021/07/17 07:34:20;;;;;;;25.05;22.13;;;;;;;22.58;79.88;100621.67;1805492;79;21003;-69
2021/07/17 07:36:49;;;;;;;24.20;20.37;;;;;;;22.52;79.78;100621.82;1797755;79;21080;-69
2021/07/17 07:39:16;;;;;;;24.12;20.15;;;;;;;22.45;79.68;100621.14;1776260;80;21059;-69
2021/07/17 07:41:42;;;;;;;23.05;19.80;;;;;;;22.41;79.54;100618.88;1776416;79;21050;-69
2021/07/17 07:44:09;;;;;;;24.27;19.27;;;;;;;22.38;79.46;100613.93;1775489;80;22611;-69
2021/07/17 07:46:35;;;;;;;25.27;22.22;;;;;;;22.43;79.39;100615.11;1780356;79;20959;-69
2021/07/17 07:49:02;;;;;;;29.23;21.23;;;;;;;22.44;79.27;100616.77;1785245;79;20999;-69
2021/07/17 07:51:29;;;;;;;27.58;23.12;;;;;;;22.36;79.10;100620.16;1777802;80;21031;-69
2021/07/17 07:53:55;;;;;;;23.65;19.45;;;;;;;22.31;79.03;100613.25;1789447;79;21014;-69
2021/07/17 07:56:21;;;;;;;22.17;19.95;;;;;;;22.31;78.93;100624.12;1782152;79;22559;-70
2021/07/17 07:58:47;;;;;;;25.68;20.00;;;;;;;22.28;78.91;100621.89;1783530;79;21050;-70
2021/07/17 08:01:13;;;;;;;23.20;20.72;;;;;;;22.30;78.85;100623.84;1811499;78;20982;-69
2021/07/17 08:03:39;;;;;;;28.30;20.60;;;;;;;22.33;78.82;100624.72;1778697;80;21014;-69
2021/07/17 08:06:06;;;;;;;25.17;21.68;;;;;;;22.38;78.72;100626.69;1785731;79;21029;-70
2021/07/17 08:08:32;;;;;;;24.77;20.70;;;;;;;22.41;78.70;100628.39;1780889;79;21819;-70
2021/07/17 08:10:59;;;;;;;26.10;19.92;;;;;;;22.46;78.70;100625.48;1781065;79;21178;-69
2021/07/17 08:13:25;;;;;;;29.23;21.17;;;;;;;22.60;78.70;100633.64;1783973;79;21032;-70
2021/07/17 08:15:53;;;;;;;45.95;27.52;;;;;;;22.70;78.58;100631.14;1787237;79;21073;-70
2021/07/17 08:18:19;;;;;;;32.55;22.95;;;;;;;22.70;78.44;100629.78;1813645;78;21455;-70
2021/07/17 08:20:45;;;;;;;28.32;18.52;;;;;;;22.68;78.33;100637.37;1802116;78;21801;-70
2021/07/17 08:23:11;;;;;;;24.25;16.62;;;;;;;22.78;78.33;100636.20;1782216;80;21008;-70
2021/07/17 08:25:38;;;;;;;18.05;14.93;;;;;;;23.04;78.23;100636.95;1781174;78;20998;-70
2021/07/17 08:28:05;;;;;;;20.05;15.60;;;;;;;23.21;77.95;100636.43;1813460;78;20979;-70
2021/07/17 08:30:33;;;;;;;18.82;14.63;;;;;;;23.28;77.79;100641.17;1782020;78;21014;-70
2021/07/17 08:32:59;;;;;;;19.42;14.13;;;;;;;23.29;77.61;100645.53;1783025;79;21850;-70
2021/07/17 08:35:25;;;;;;;18.73;13.38;;;;;;;23.36;77.40;100644.83;1784343;79;21005;-70
2021/07/17 08:37:51;;;;;;;16.73;13.43;;;;;;;23.37;77.20;100653.28;1784898;79;21053;-70
2021/07/17 08:40:17;;;;;;;18.82;13.20;;;;;;;23.40;77.04;100652.78;1783137;79;21063;-70
2021/07/17 08:42:46;;;;;;;20.80;13.95;;;;;;;23.40;76.79;100651.43;1788453;79;21475;-70
2021/07/17 08:45:12;;;;;;;21.30;13.67;;;;;;;23.32;76.42;100646.95;1784193;79;21877;-70
2021/07/17 08:47:41;;;;;;;22.17;16.60;;;;;;;23.32;76.42;100646.95;1782552;79;21019;-70
2021/07/17 08:50:12;;;;;;;25.03;15.93;;;;;;;23.28;76.13;100650.70;1782774;79;21011;-70
2021/07/17 08:52:38;;;;;;;17.00;13.35;;;;;;;23.30;75.94;100655.35;1783336;79;21491;-70
2021/07/17 08:55:06;;;;;;;18.62;12.63;;;;;;;23.26;75.75;100655.55;1779675;79;21511;-70
2021/07/17 08:57:33;;;;;;;15.90;13.58;;;;;;;23.26;75.58;100665.61;1778139;79;21890;-70
2021/07/17 09:00:01;;;;;;;17.42;14.98;;;;;;;23.22;75.45;100663.91;1786251;79;21515;-70
2021/07/17 09:02:27;;;;;;;19.37;16.75;;;;;;;23.14;75.30;100668.42;1786075;79;21058;-70
2021/07/17 09:04:53;;;;;;;19.42;16.30;;;;;;;22.92;75.31;100666.11;1782206;79;21060;-70
2021/07/17 09:07:19;;;;;;;18.73;16.10;;;;;;;22.73;75.40;100669.55;1783596;79;21116;-70
2021/07/17 09:09:46;;;;;;;22.32;16.32;;;;;;;22.67;75.53;100666.45;1783558;79;21756;-70
2021/07/17 09:12:25;;;;;;;18.42;16.25;;;;;;;22.61;75.63;100663.33;1780369;79;21014;-70
2021/07/17 09:14:52;;;;;;;19.90;15.48;;;;;;;22.65;75.71;100667.22;1782022;79;21051;-70
2021/07/17 09:17:28;;;;;;;17.02;14.98;;;;;;;22.84;75.79;100669.21;1779790;79;21449;-70
2021/07/17 09:19:59;;;;;;;17.20;15.40;;;;;;;23.06;75.82;100672.89;1781885;79;21439;-70
2021/07/17 09:22:37;;;;;;;18.45;15.13;;;;;;;23.12;75.69;100673.27;1776452;79;21718;-70
2021/07/17 09:25:13;;;;;;;19.00;15.68;;;;;;;23.20;75.68;100668.80;1788595;79;21049;-71
2021/07/17 09:27:39;;;;;;;26.35;17.05;;;;;;;23.40;75.73;100665.57;1796909;79;21002;-71
2021/07/17 09:30:30;;;;;;;18.45;15.68;;;;;;;23.55;75.59;100666.39;1796392;79;20990;-71
2021/07/17 09:33:04;;;;;;;20.52;15.45;;;;;;;23.70;75.54;100667.99;1797286;79;21042;-71
2021/07/17 09:35:33;;;;;;;20.08;15.23;;;;;;;23.86;75.32;100664.41;1825147;78;21794;-71
2021/07/17 09:38:00;;;;;;;21.27;16.52;;;;;;;23.90;75.17;100668.28;1795586;79;21005;-71
2021/07/17 09:40:26;;;;;;;21.42;15.90;;;;;;;23.88;75.01;100663.10;1824644;77;20966;-71
2021/07/17 09:42:52;;;;;;;18.42;15.15;;;;;;;23.92;74.94;100662.06;1824223;78;21846;-71
2021/07/17 09:45:39;;;;;;;19.15;15.23;;;;;;;23.96;74.73;100659.66;1792214;79;21088;-71
2021/07/17 09:48:26;;;;;;;21.80;15.68;;;;;;;24.00;74.64;100664.34;1827311;78;21734;-71
2021/07/17 09:50:53;;;;;;;16.85;14.78;;;;;;;24.07;74.51;100662.78;1813618;78;21331;-71
2021/07/17 09:53:41;;;;;;;17.82;14.83;;;;;;;24.15;74.32;100661.03;1814973;79;21416;-71
2021/07/17 09:56:10;;;;;;;25.02;16.65;;;;;;;24.14;74.10;100660.20;1814721;79;20992;-71
2021/07/17 09:58:38;;;;;;;21.00;14.98;;;;;;;24.03;73.97;100661.11;1814396;78;20988;-71
2021/07/17 10:01:33;;;;;;;21.17;17.17;;;;;;;23.95;73.91;100662.92;1814629;79;21816;-71
2021/07/17 10:04:09;;;;;;;19.45;16.20;;;;;;;23.78;73.79;100666.22;1814323;79;20917;-71
2021/07/17 10:06:58;;;;;;;17.17;15.40;;;;;;;23.54;73.80;100669.64;1814719;79;20996;-71
2021/07/17 10:09:28;;;;;;;27.58;16.32;;;;;;;23.32;73.85;100668.20;1814069;79;21036;-71
2021/07/17 10:12:03;;;;;;;22.60;15.53;;;;;;;23.07;73.86;100667.75;1814790;79;21001;-71
2021/07/17 10:14:38;;;;;;;23.05;17.50;;;;;;;22.94;73.93;100665.31;1814453;79;22506;-71
2021/07/17 10:17:14;;;;;;;23.18;18.05;;;;;;;22.88;73.96;100673.10;1814238;79;21020;-71
2021/07/17 10:19:42;;;;;;;22.62;17.00;;;;;;;22.83;73.99;100669.74;1814786;79;21477;-71
2021/07/17 10:22:09;;;;;;;26.40;17.62;;;;;;;22.82;74.09;100669.47;1814795;79;20977;-71
2021/07/17 10:24:36;;;;;;;25.62;19.10;;;;;;;22.86;74.12;100675.25;1814630;79;21509;-71
2021/07/17 10:27:03;;;;;;;26.93;19.25;;;;;;;22.94;74.14;100668.03;1814715;79;21851;-71
2021/07/17 10:29:29;;;;;;;23.92;18.00;;;;;;;23.09;74.17;100666.95;1814711;79;21492;-71
2021/07/17 10:31:57;;;;;;;28.00;19.52;;;;;;;23.21;74.15;100665.01;1815107;79;20897;-71
2021/07/17 10:34:23;;;;;;;22.98;19.25;;;;;;;23.36;74.11;100659.80;1792560;79;21024;-71
2021/07/17 10:36:57;;;;;;;26.10;19.15;;;;;;;23.60;74.13;100661.03;1815367;79;21004;-71
2021/07/17 10:39:33;;;;;;;25.40;20.12;;;;;;;23.93;74.09;100652.80;1815416;79;21764;-71
2021/07/17 10:42:00;;;;;;;20.97;17.90;;;;;;;24.19;73.84;100650.73;1815235;79;20976;-71
2021/07/17 10:44:47;;;;;;;22.87;17.55;;;;;;;24.48;73.64;100650.55;1815319;79;21004;-71
2021/07/17 10:47:14;;;;;;;28.62;18.32;;;;;;;24.70;73.43;100643.16;1797472;78;21032;-71
2021/07/17 10:49:50;;;;;;;21.40;17.77;;;;;;;24.93;73.00;100642.88;1769054;81;21013;-71
2021/07/17 10:52:36;;;;;;;27.90;18.67;;;;;;;25.03;72.79;100641.60;1786045;80;21872;-71
2021/07/17 10:55:32;;;;;;;25.00;18.52;;;;;;;25.20;72.39;100642.30;1801819;78;21305;-71
2021/07/17 10:58:13;;;;;;;29.48;19.98;;;;;;;25.28;72.08;100649.19;1822983;78;20993;-71
2021/07/17 11:00:51;;;;;;;29.07;21.02;;;;;;;25.45;71.86;100640.84;1823101;78;21164;-71
2021/07/17 11:03:29;;;;;;;25.32;18.48;;;;;;;25.67;71.53;100634.77;1823090;78;21502;-72
2021/07/17 11:05:56;;;;;;;25.45;18.62;;;;;;;25.87;71.10;100632.14;1786454;80;21842;-71
2021/07/17 11:08:37;;;;;;;27.45;19.17;;;;;;;25.83;70.67;100630.48;1823028;78;21040;-72
2021/07/17 11:11:33;;;;;;;26.55;19.45;;;;;;;25.81;70.48;100634.58;1786569;80;20976;-71
2021/07/17 11:14:17;;;;;;;31.37;20.32;;;;;;;25.87;70.25;100630.78;1823044;78;20939;-71